Time;durP1;ratioP1;P1;durP2;ratioP2;P2;SDS_P1;SDS_P2;PMS_P1;PMS_P2;Temp;Humidity;BMP_temperature;BMP_pressure;BME280_temperature;BME280_humidity;BME280_pressure;Samples;Min_cycle;Max_cycle;Signal;HPM_P1;HPM_P2
2022/06/10 00:01:04;;;;;;;8.10;4.30;;;;;;;-128.00;-1.00;-1.00;100201;1299;1003507;-26
2022/06/10 00:03:35;;;;;;;5.50;5.10;;;;;;;-128.00;-1.00;-1.00;100158;1299;1003546;-30
2022/06/10 00:06:06;;;;;;;8.30;5.70;;;;;;;-128.00;-1.00;-1.00;100178;1299;1003589;-25
2022/06/10 00:08:38;;;;;;;7.80;5.90;;;;;;;-128.00;-1.00;-1.00;100169;1299;1003986;-29
2022/06/10 00:11:08;;;;;;;7.30;6.60;;;;;;;-128.00;-1.00;-1.00;100182;1298;1003832;-29
2022/06/10 00:13:40;;;;;;;7.90;6.30;;;;;;;-128.00;-1.00;-1.00;100091;1299;1004267;-25
2022/06/10 00:16:09;;;;;;;7.90;6.20;;;;;;;-128.00;-1.00;-1.00;100069;1299;1003480;-24
2022/06/10 00:18:38;;;;;;;6.20;5.30;;;;;;;-128.00;-1.00;-1.00;100172;1299;1004239;-29
2022/06/10 00:21:08;;;;;;;8.30;7.50;;;;;;;-128.00;-1.00;-1.00;100175;1296;1003908;-28
2022/06/10 00:23:38;;;;;;;7.30;6.70;;;;;;;-128.00;-1.00;-1.00;100162;1299;1004120;-28
2022/06/10 00:26:07;;;;;;;7.30;6.60;;;;;;;-128.00;-1.00;-1.00;100155;1297;1003720;-29
2022/06/10 00:28:37;;;;;;;6.00;5.50;;;;;;;-128.00;-1.00;-1.00;100124;1299;1003725;-27
2022/06/10 00:31:06;;;;;;;9.40;6.40;;;;;;;-128.00;-1.00;-1.00;100142;1299;1004119;-29
2022/06/10 00:33:36;;;;;;;11.50;5.50;;;;;;;-128.00;-1.00;-1.00;100187;1299;1002971;-27
2022/06/10 00:36:05;;;;;;;6.30;5.70;;;;;;;-128.00;-1.00;-1.00;100168;1299;1003037;-26
2022/06/10 00:38:35;;;;;;;8.00;7.00;;;;;;;-128.00;-1.00;-1.00;100149;1299;1003739;-27
2022/06/10 00:41:04;;;;;;;8.20;5.70;;;;;;;-128.00;-1.00;-1.00;100185;1299;1002999;-31
2022/06/10 00:43:34;;;;;;;6.40;5.80;;;;;;;-128.00;-1.00;-1.00;100146;1299;1003782;-27
2022/06/10 00:46:11;;;;;;;6.30;5.40;;;;;;;-128.00;-1.00;-1.00;100207;1299;1003919;-25
2022/06/10 00:48:47;;;;;;;7.80;6.80;;;;;;;-128.00;-1.00;-1.00;100123;1299;1003724;-29
2022/06/10 00:51:19;;;;;;;9.80;6.90;;;;;;;-128.00;-1.00;-1.00;100161;1299;1004077;-29
2022/06/10 00:53:53;;;;;;;8.70;7.60;;;;;;;-128.00;-1.00;-1.00;100182;1299;1004219;-25
2022/06/10 00:56:23;;;;;;;7.60;6.70;;;;;;;-128.00;-1.00;-1.00;100153;1299;1003155;-29
2022/06/10 00:58:56;;;;;;;8.60;6.90;;;;;;;-128.00;-1.00;-1.00;100136;1299;1003232;-25
2022/06/10 01:01:25;;;;;;;10.70;8.00;;;;;;;-128.00;-1.00;-1.00;100149;1299;1003789;-25
2022/06/10 01:03:54;;;;;;;8.80;7.30;;;;;;;-128.00;-1.00;-1.00;100162;1299;1003823;-29
2022/06/10 01:06:24;;;;;;;8.40;6.70;;;;;;;-128.00;-1.00;-1.00;100134;1299;1003901;-29
2022/06/10 01:08:54;;;;;;;5.90;5.10;;;;;;;-128.00;-1.00;-1.00;100088;1299;1003484;-29
2022/06/10 01:11:27;;;;;;;8.30;7.50;;;;;;;-128.00;-1.00;-1.00;100153;1299;1004103;-25
2022/06/10 01:14:06;;;;;;;9.60;6.60;;;;;;;-128.00;-1.00;-1.00;100154;1299;1003084;-25
2022/06/10 01:16:44;;;;;;;6.40;5.50;;;;;;;-128.00;-1.00;-1.00;100115;1299;1004396;-29
2022/06/10 01:19:14;;;;;;;7.80;5.90;;;;;;;-128.00;-1.00;-1.00;100182;1298;1004063;-30
2022/06/10 01:21:52;;;;;;;7.20;6.60;;;;;;;-128.00;-1.00;-1.00;100147;1299;1003448;-29
2022/06/10 01:24:30;;;;;;;8.70;5.80;;;;;;;-128.00;-1.00;-1.00;100142;1299;1003883;-25
2022/06/10 01:29:38;;;;;;;6.00;5.20;;;;;;;-128.00;-1.00;-1.00;100083;1299;1005145;-25
2022/06/10 01:32:10;;;;;;;7.50;6.00;;;;;;;-128.00;-1.00;-1.00;100197;1298;1003909;-29
2022/06/10 01:34:48;;;;;;;7.30;6.00;;;;;;;-128.00;-1.00;-1.00;100137;1299;1004294;-25
2022/06/10 01:37:21;;;;;;;7.00;5.10;;;;;;;-128.00;-1.00;-1.00;100187;1299;1003890;-24
2022/06/10 01:39:51;;;;;;;6.10;5.20;;;;;;;-128.00;-1.00;-1.00;100183;1297;1004255;-25
2022/06/10 01:42:23;;;;;;;6.40;5.80;;;;;;;-128.00;-1.00;-1.00;100146;1299;1003708;-29
2022/06/10 01:44:56;;;;;;;5.80;5.30;;;;;;;-128.00;-1.00;-1.00;100157;1299;1003680;-30
2022/06/10 01:47:29;;;;;;;6.30;5.80;;;;;;;-128.00;-1.00;-1.00;100072;1299;1004091;-25
2022/06/10 01:50:02;;;;;;;5.80;5.30;;;;;;;-128.00;-1.00;-1.00;100120;1298;1003612;-30
2022/06/10 01:52:38;;;;;;;4.60;3.90;;;;;;;-128.00;-1.00;-1.00;100145;1299;1003750;-24
2022/06/10 01:55:12;;;;;;;6.60;6.10;;;;;;;-128.00;-1.00;-1.00;100139;1299;1004139;-24
2022/06/10 01:57:45;;;;;;;9.70;4.30;;;;;;;-128.00;-1.00;-1.00;100172;1299;1003204;-31
2022/06/10 02:00:18;;;;;;;7.80;6.20;;;;;;;-128.00;-1.00;-1.00;100136;1299;1003632;-31
2022/06/10 02:02:53;;;;;;;5.50;4.90;;;;;;;-128.00;-1.00;-1.00;100053;1299;1004208;-29
2022/06/10 02:05:23;;;;;;;3.70;3.30;;;;;;;-128.00;-1.00;-1.00;100162;1299;1002798;-25
2022/06/10 02:07:57;;;;;;;4.50;3.80;;;;;;;-128.00;-1.00;-1.00;100170;1299;1003378;-25
2022/06/10 02:10:28;;;;;;;7.90;6.10;;;;;;;-128.00;-1.00;-1.00;100195;1298;1003815;-25
2022/06/10 02:13:00;;;;;;;10.90;7.00;;;;;;;-128.00;-1.00;-1.00;100154;1299;1003058;-29
2022/06/10 02:15:33;;;;;;;5.60;5.10;;;;;;;-128.00;-1.00;-1.00;100086;1299;1004675;-25
2022/06/10 02:18:07;;;;;;;8.60;7.20;;;;;;;-128.00;-1.00;-1.00;100168;1299;1003838;-25
2022/06/10 02:20:37;;;;;;;7.10;5.40;;;;;;;-128.00;-1.00;-1.00;100222;1299;1003541;-24
2022/06/10 02:23:06;;;;;;;11.20;7.40;;;;;;;-128.00;-1.00;-1.00;100177;1298;1004666;-24
2022/06/10 02:25:39;;;;;;;6.50;5.80;;;;;;;-128.00;-1.00;-1.00;100179;1299;1002901;-31
2022/06/10 02:28:11;;;;;;;4.90;4.10;;;;;;;-128.00;-1.00;-1.00;100163;1298;1003228;-31
2022/06/10 02:30:48;;;;;;;4.80;4.40;;;;;;;-128.00;-1.00;-1.00;100101;1299;1003293;-27
2022/06/10 02:33:17;;;;;;;9.80;7.10;;;;;;;-128.00;-1.00;-1.00;100126;1298;1004014;-27
2022/06/10 02:35:53;;;;;;;6.70;6.10;;;;;;;-128.00;-1.00;-1.00;100206;1298;1003986;-27
2022/06/10 02:38:27;;;;;;;6.00;5.50;;;;;;;-128.00;-1.00;-1.00;100154;1299;1003842;-30
2022/06/10 02:41:00;;;;;;;8.30;7.40;;;;;;;-128.00;-1.00;-1.00;100157;1298;1004363;-25
2022/06/10 02:43:35;;;;;;;4.50;4.00;;;;;;;-128.00;-1.00;-1.00;100180;1299;1004171;-25
2022/06/10 02:46:09;;;;;;;7.70;6.40;;;;;;;-128.00;-1.00;-1.00;100085;1299;1003867;-29
2022/06/10 02:48:45;;;;;;;6.50;3.50;;;;;;;-128.00;-1.00;-1.00;100229;1298;1004597;-29
2022/06/10 02:51:16;;;;;;;30.40;6.50;;;;;;;-128.00;-1.00;-1.00;100163;1299;1004299;-25
2022/06/10 02:53:45;;;;;;;8.50;6.50;;;;;;;-128.00;-1.00;-1.00;100177;1299;1003463;-29
2022/06/10 02:56:19;;;;;;;9.10;5.30;;;;;;;-128.00;-1.00;-1.00;100171;1299;1003952;-29
2022/06/10 03:01:27;;;;;;;7.70;6.90;;;;;;;-128.00;-1.00;-1.00;100133;1299;1004262;-31
2022/06/10 03:04:14;;;;;;;5.30;4.90;;;;;;;-128.00;-1.00;-1.00;100171;1299;1003942;-27
2022/06/10 03:06:44;;;;;;;6.10;4.70;;;;;;;-128.00;-1.00;-1.00;100140;1299;1004250;-27
2022/06/10 03:09:17;;;;;;;6.90;5.70;;;;;;;-128.00;-1.00;-1.00;100162;1299;1003504;-31
2022/06/10 03:11:50;;;;;;;;;;;;;;;-128.00;-1.00;-1.00;100107;1299;1004106;-28
2022/06/10 03:14:26;;;;;;;5.90;5.40;;;;;;;-128.00;-1.00;-1.00;100196;1299;1003734;-31
2022/06/10 03:17:01;;;;;;;4.20;3.80;;;;;;;-128.00;-1.00;-1.00;100163;1299;1003196;-24
2022/06/10 03:19:37;;;;;;;5.60;5.20;;;;;;;-128.00;-1.00;-1.00;100189;1299;1004706;-24
2022/06/10 03:22:10;;;;;;;8.00;6.80;;;;;;;-128.00;-1.00;-1.00;100162;1299;1003597;-29
2022/06/10 03:24:52;;;;;;;4.20;3.80;;;;;;;-128.00;-1.00;-1.00;100158;1299;1003178;-24
2022/06/10 03:27:27;;;;;;;6.10;4.70;;;;;;;-128.00;-1.00;-1.00;99929;1303;1003751;-27
2022/06/10 03:30:04;;;;;;;8.80;5.90;;;;;;;-128.00;-1.00;-1.00;100166;1298;1003595;-27
2022/06/10 03:32:39;;;;;;;12.40;5.50;;;;;;;-128.00;-1.00;-1.00;100116;1299;1004062;-24
2022/06/10 03:35:14;;;;;;;6.90;5.90;;;;;;;-128.00;-1.00;-1.00;100113;1299;1003158;-29
2022/06/10 03:37:43;;;;;;;7.00;6.40;;;;;;;-128.00;-1.00;-1.00;100182;1299;1003533;-27
2022/06/10 03:40:17;;;;;;;7.00;6.30;;;;;;;-128.00;-1.00;-1.00;100134;1299;1003788;-24
2022/06/10 03:42:48;;;;;;;6.40;5.80;;;;;;;-128.00;-1.00;-1.00;100146;1298;1004320;-26
2022/06/10 03:45:19;;;;;;;7.80;6.00;;;;;;;-128.00;-1.00;-1.00;100173;1299;1002840;-31
2022/06/10 03:47:49;;;;;;;9.50;8.60;;;;;;;-128.00;-1.00;-1.00;100163;1299;1004905;-26
2022/06/10 03:50:22;;;;;;;10.70;5.80;;;;;;;-128.00;-1.00;-1.00;100203;1299;1004408;-31
2022/06/10 03:52:51;;;;;;;9.70;6.80;;;;;;;-128.00;-1.00;-1.00;100202;1299;1004202;-25
2022/06/10 03:55:20;;;;;;;5.60;4.40;;;;;;;-128.00;-1.00;-1.00;100162;1299;1003193;-25
2022/06/10 03:57:49;;;;;;;4.80;4.40;;;;;;;-128.00;-1.00;-1.00;100216;1299;1003191;-29
2022/06/10 04:00:21;;;;;;;5.50;4.80;;;;;;;-128.00;-1.00;-1.00;100187;1299;1004772;-25
2022/06/10 04:02:51;;;;;;;11.10;8.10;;;;;;;-128.00;-1.00;-1.00;100139;1299;1003470;-29
2022/06/10 04:05:20;;;;;;;10.40;6.80;;;;;;;-128.00;-1.00;-1.00;100031;1300;1003224;-29
2022/06/10 04:07:49;;;;;;;6.30;5.80;;;;;;;-128.00;-1.00;-1.00;100171;1299;1004387;-29
2022/06/10 04:10:23;;;;;;;8.80;6.10;;;;;;;-128.00;-1.00;-1.00;100115;1299;1005334;-29
2022/06/10 04:12:52;;;;;;;11.10;6.30;;;;;;;-128.00;-1.00;-1.00;100159;1299;1003681;-29
2022/06/10 04:15:24;;;;;;;5.40;4.40;;;;;;;-128.00;-1.00;-1.00;99947;1299;1004956;-27
2022/06/10 04:17:55;;;;;;;8.80;7.70;;;;;;;-128.00;-1.00;-1.00;100134;1299;1003685;-31
2022/06/10 04:20:29;;;;;;;4.90;4.30;;;;;;;-128.00;-1.00;-1.00;100160;1299;1003901;-24
2022/06/10 04:22:58;;;;;;;8.40;7.40;;;;;;;-128.00;-1.00;-1.00;100254;1299;1003478;-26
2022/06/10 04:25:27;;;;;;;6.30;5.80;;;;;;;-128.00;-1.00;-1.00;100159;1299;1004145;-30
2022/06/10 04:27:57;;;;;;;8.20;6.50;;;;;;;-128.00;-1.00;-1.00;100189;1298;1004202;-30
2022/06/10 04:30:27;;;;;;;11.60;6.30;;;;;;;-128.00;-1.00;-1.00;100133;1299;1004208;-24
2022/06/10 04:32:57;;;;;;;6.00;5.20;;;;;;;-128.00;-1.00;-1.00;100153;1299;1003618;-25
2022/06/10 04:35:26;;;;;;;9.50;6.10;;;;;;;-128.00;-1.00;-1.00;100155;1299;1004263;-25
2022/06/10 04:37:56;;;;;;;9.30;6.80;;;;;;;-128.00;-1.00;-1.00;100176;1299;1004465;-30
2022/06/10 04:40:26;;;;;;;7.40;5.90;;;;;;;-128.00;-1.00;-1.00;100182;1299;1003731;-29
2022/06/10 04:42:56;;;;;;;7.20;6.30;;;;;;;-128.00;-1.00;-1.00;100135;1299;1003047;-31
2022/06/10 04:45:28;;;;;;;10.50;7.10;;;;;;;-128.00;-1.00;-1.00;100070;1299;1003410;-27
2022/06/10 04:47:58;;;;;;;8.10;6.70;;;;;;;-128.00;-1.00;-1.00;100108;1299;1003597;-29
2022/06/10 04:50:28;;;;;;;10.30;8.30;;;;;;;-128.00;-1.00;-1.00;100131;1299;1003833;-24
2022/06/10 04:52:57;;;;;;;11.20;7.90;;;;;;;-128.00;-1.00;-1.00;100185;1299;1003819;-29
2022/06/10 04:55:27;;;;;;;10.80;7.90;;;;;;;-128.00;-1.00;-1.00;100231;1298;1003773;-29
2022/06/10 04:57:56;;;;;;;10.10;8.10;;;;;;;-128.00;-1.00;-1.00;100200;1299;1003066;-24
2022/06/10 05:00:28;;;;;;;11.90;7.60;;;;;;;-128.00;-1.00;-1.00;100149;1299;1004236;-25
2022/06/10 05:02:58;;;;;;;6.80;6.20;;;;;;;-128.00;-1.00;-1.00;100185;1299;1004089;-29
2022/06/10 05:05:29;;;;;;;8.30;6.40;;;;;;;-128.00;-1.00;-1.00;100154;1299;1002587;-29
2022/06/10 05:07:58;;;;;;;6.50;5.90;;;;;;;-128.00;-1.00;-1.00;100197;1299;1003255;-27
2022/06/10 05:10:28;;;;;;;10.90;8.50;;;;;;;-128.00;-1.00;-1.00;100155;1299;1004034;-25
2022/06/10 05:12:57;;;;;;;10.70;7.80;;;;;;;-128.00;-1.00;-1.00;100162;1299;1003165;-26
2022/06/10 05:15:28;;;;;;;18.40;9.20;;;;;;;-128.00;-1.00;-1.00;100143;1299;1004499;-25
2022/06/10 05:17:58;;;;;;;10.00;7.30;;;;;;;-128.00;-1.00;-1.00;100159;1299;1003650;-29
2022/06/10 05:20:30;;;;;;;6.20;5.60;;;;;;;-128.00;-1.00;-1.00;100120;1299;1003584;-29
2022/06/10 05:23:01;;;;;;;8.80;7.20;;;;;;;-128.00;-1.00;-1.00;100213;1299;1003610;-26
2022/06/10 05:25:31;;;;;;;11.80;9.90;;;;;;;-128.00;-1.00;-1.00;100143;1299;1003427;-29
2022/06/10 05:28:00;;;;;;;8.50;6.70;;;;;;;-128.00;-1.00;-1.00;100262;1299;1003539;-29
2022/06/10 05:30:30;;;;;;;7.30;6.30;;;;;;;-128.00;-1.00;-1.00;100402;1299;1003961;-26
2022/06/10 05:33:00;;;;;;;7.80;6.50;;;;;;;-128.00;-1.00;-1.00;100298;1299;1003843;-26
2022/06/10 05:35:30;;;;;;;7.30;6.80;;;;;;;-128.00;-1.00;-1.00;100364;1299;1003218;-29
2022/06/10 05:37:59;;;;;;;8.40;7.40;;;;;;;-128.00;-1.00;-1.00;100421;1299;1003026;-25
2022/06/10 05:40:29;;;;;;;6.80;4.20;;;;;;;-128.00;-1.00;-1.00;100356;1299;1004027;-25
2022/06/10 05:42:59;;;;;;;11.70;6.90;;;;;;;-128.00;-1.00;-1.00;100366;1299;1004828;-29
2022/06/10 05:45:29;;;;;;;6.50;5.60;;;;;;;-128.00;-1.00;-1.00;100304;1299;1004405;-26
2022/06/10 05:48:00;;;;;;;7.10;6.50;;;;;;;-128.00;-1.00;-1.00;100341;1299;1004337;-24
2022/06/10 05:50:32;;;;;;;16.00;6.20;;;;;;;-128.00;-1.00;-1.00;100210;1299;1004143;-29
2022/06/10 05:53:03;;;;;;;10.20;7.70;;;;;;;-128.00;-1.00;-1.00;100106;1299;1003148;-23
2022/06/10 05:55:32;;;;;;;7.50;6.00;;;;;;;-128.00;-1.00;-1.00;100186;1299;1004152;-29
2022/06/10 05:58:01;;;;;;;12.20;5.30;;;;;;;-128.00;-1.00;-1.00;100090;1299;1003992;-25
2022/06/10 06:00:32;;;;;;;7.60;6.50;;;;;;;-128.00;-1.00;-1.00;100168;1299;1003472;-29
2022/06/10 06:03:01;;;;;;;11.40;5.30;;;;;;;-128.00;-1.00;-1.00;100181;1299;1003336;-29
2022/06/10 06:05:30;;;;;;;5.50;4.90;;;;;;;-128.00;-1.00;-1.00;100004;1300;1003986;-25
2022/06/10 06:08:00;;;;;;;5.30;4.30;;;;;;;-128.00;-1.00;-1.00;100181;1299;1003265;-25
2022/06/10 06:10:30;;;;;;;17.30;6.50;;;;;;;-128.00;-1.00;-1.00;100185;1299;1003331;-29
2022/06/10 06:12:59;;;;;;;7.20;4.70;;;;;;;-128.00;-1.00;-1.00;100167;1299;1003065;-29
2022/06/10 06:15:28;;;;;;;8.40;7.60;;;;;;;-128.00;-1.00;-1.00;100166;1298;1004068;-29
2022/06/10 06:17:57;;;;;;;5.00;4.40;;;;;;;-128.00;-1.00;-1.00;100172;1298;1004753;-29
2022/06/10 06:20:27;;;;;;;7.60;7.00;;;;;;;-128.00;-1.00;-1.00;100196;1299;1003751;-29
2022/06/10 06:22:56;;;;;;;7.30;6.40;;;;;;;-128.00;-1.00;-1.00;100153;1299;1003042;-29
2022/06/10 06:25:26;;;;;;;7.30;6.60;;;;;;;-128.00;-1.00;-1.00;100182;1299;1004017;-29
2022/06/10 06:27:55;;;;;;;6.20;5.70;;;;;;;-128.00;-1.00;-1.00;100219;1299;1003346;-27
2022/06/10 06:30:31;;;;;;;7.30;5.80;;;;;;;-128.00;-1.00;-1.00;100246;1299;1004631;-29
2022/06/10 06:33:02;;;;;;;7.40;4.60;;;;;;;-128.00;-1.00;-1.00;99966;1299;1003547;-29
2022/06/10 06:35:32;;;;;;;14.80;5.30;;;;;;;-128.00;-1.00;-1.00;100164;1299;1004148;-25
2022/06/10 06:38:02;;;;;;;6.00;4.50;;;;;;;-128.00;-1.00;-1.00;100075;1299;1003649;-25
2022/06/10 06:40:32;;;;;;;5.40;4.20;;;;;;;-128.00;-1.00;-1.00;100159;1299;1003981;-25
2022/06/10 06:43:01;;;;;;;5.00;4.50;;;;;;;-128.00;-1.00;-1.00;100149;1299;1003606;-24
2022/06/10 06:45:30;;;;;;;4.20;3.80;;;;;;;-128.00;-1.00;-1.00;100176;1299;1004231;-27
2022/06/10 06:48:00;;;;;;;5.10;4.50;;;;;;;-128.00;-1.00;-1.00;100181;1299;1003146;-25
2022/06/10 06:50:30;;;;;;;4.00;3.70;;;;;;;-128.00;-1.00;-1.00;100153;1302;1003744;-25
2022/06/10 06:53:00;;;;;;;4.60;4.00;;;;;;;-128.00;-1.00;-1.00;100185;1299;1003062;-29
2022/06/10 06:55:29;;;;;;;4.40;4.00;;;;;;;-128.00;-1.00;-1.00;100085;1299;1003847;-29
2022/06/10 06:57:58;;;;;;;6.70;3.90;;;;;;;-128.00;-1.00;-1.00;100116;1299;1003584;-29
2022/06/10 07:00:27;;;;;;;4.70;3.70;;;;;;;-128.00;-1.00;-1.00;100091;1296;1004016;-25
2022/06/10 07:02:57;;;;;;;8.90;4.60;;;;;;;-128.00;-1.00;-1.00;100134;1299;1004405;-27
2022/06/10 07:05:26;;;;;;;4.50;4.00;;;;;;;-128.00;-1.00;-1.00;100127;1299;1003806;-30
2022/06/10 07:07:55;;;;;;;6.80;4.20;;;;;;;-128.00;-1.00;-1.00;100200;1299;1003540;-25
2022/06/10 07:10:25;;;;;;;5.00;4.40;;;;;;;-128.00;-1.00;-1.00;100072;1302;1003777;-25
2022/06/10 07:12:54;;;;;;;5.50;4.30;;;;;;;-128.00;-1.00;-1.00;100161;1299;1004918;-25
2022/06/10 07:15:23;;;;;;;3.60;3.30;;;;;;;-128.00;-1.00;-1.00;100171;1299;1003632;-29
2022/06/10 07:17:52;;;;;;;3.40;2.50;;;;;;;-128.00;-1.00;-1.00;100160;1299;1003128;-29
2022/06/10 07:20:26;;;;;;;4.40;3.80;;;;;;;-128.00;-1.00;-1.00;100213;1299;1003860;-28
2022/06/10 07:22:55;;;;;;;4.20;3.80;;;;;;;-128.00;-1.00;-1.00;100205;1299;1003116;-28
2022/06/10 07:25:24;;;;;;;4.10;3.70;;;;;;;-128.00;-1.00;-1.00;100218;1299;1004236;-24
2022/06/10 07:27:55;;;;;;;3.80;3.20;;;;;;;-128.00;-1.00;-1.00;100212;1299;1004385;-25
2022/06/10 07:30:26;;;;;;;2.50;2.20;;;;;;;-128.00;-1.00;-1.00;100092;1299;1003854;-25
2022/06/10 07:32:55;;;;;;;4.10;3.80;;;;;;;-128.00;-1.00;-1.00;100080;1299;1003004;-29
2022/06/10 07:35:25;;;;;;;9.40;3.70;;;;;;;-128.00;-1.00;-1.00;100090;1299;1003451;-24
2022/06/10 07:37:54;;;;;;;8.00;4.10;;;;;;;-128.00;-1.00;-1.00;100181;1299;1003401;-24
2022/06/10 07:43:03;;;;;;;9.20;2.80;;;;;;;-128.00;-1.00;-1.00;100168;1299;1004108;-24
2022/06/10 07:45:32;;;;;;;3.20;2.80;;;;;;;-128.00;-1.00;-1.00;100165;1299;1003870;-24
2022/06/10 07:48:01;;;;;;;3.90;3.20;;;;;;;-128.00;-1.00;-1.00;100131;1299;1003226;-29
2022/06/10 07:50:31;;;;;;;4.10;3.10;;;;;;;-128.00;-1.00;-1.00;100175;1299;1003916;-24
2022/06/10 07:53:00;;;;;;;4.20;2.80;;;;;;;-128.00;-1.00;-1.00;100181;1299;1003804;-24
2022/06/10 07:55:29;;;;;;;2.50;2.10;;;;;;;-128.00;-1.00;-1.00;100121;1299;1003994;-28
2022/06/10 07:57:59;;;;;;;6.90;3.00;;;;;;;-128.00;-1.00;-1.00;100156;1299;1003751;-28
2022/06/10 08:00:28;;;;;;;4.30;3.10;;;;;;;-128.00;-1.00;-1.00;100234;1299;1003874;-29
2022/06/10 08:02:57;;;;;;;3.10;2.60;;;;;;;-128.00;-1.00;-1.00;100127;1299;1003713;-28
2022/06/10 08:05:26;;;;;;;16.20;2.90;;;;;;;-128.00;-1.00;-1.00;100178;1299;1003726;-24
2022/06/10 08:07:56;;;;;;;3.10;2.40;;;;;;;-128.00;-1.00;-1.00;100196;1299;1004472;-27
2022/06/10 08:10:28;;;;;;;2.50;2.30;;;;;;;-128.00;-1.00;-1.00;100158;1299;1004107;-27
2022/06/10 08:12:57;;;;;;;1.90;1.70;;;;;;;-128.00;-1.00;-1.00;100174;1299;1003969;-30
2022/06/10 08:15:27;;;;;;;1.80;1.50;;;;;;;-128.00;-1.00;-1.00;100073;1300;1003354;-26
2022/06/10 08:17:56;;;;;;;1.80;1.60;;;;;;;-128.00;-1.00;-1.00;100139;1299;1003796;-30
2022/06/10 08:23:00;;;;;;;1.00;0.90;;;;;;;-128.00;-1.00;-1.00;100178;1299;1003051;-30
2022/06/10 08:25:29;;;;;;;2.50;2.30;;;;;;;-128.00;-1.00;-1.00;100157;1299;1004349;-28
2022/06/10 08:27:59;;;;;;;3.60;1.50;;;;;;;-128.00;-1.00;-1.00;100224;1299;1004048;-28
2022/06/10 08:30:28;;;;;;;2.10;1.90;;;;;;;-128.00;-1.00;-1.00;100114;1299;1006443;-29
2022/06/10 08:32:57;;;;;;;5.50;1.50;;;;;;;-128.00;-1.00;-1.00;100135;1299;1003213;-25
2022/06/10 08:35:26;;;;;;;8.70;1.50;;;;;;;-128.00;-1.00;-1.00;100136;1299;1004228;-25
2022/06/10 08:37:55;;;;;;;2.30;1.30;;;;;;;-128.00;-1.00;-1.00;100141;1298;1004176;-24
2022/06/10 08:40:29;;;;;;;2.60;1.90;;;;;;;-128.00;-1.00;-1.00;100170;1299;1004163;-25
2022/06/10 08:43:03;;;;;;;0.90;0.80;;;;;;;-128.00;-1.00;-1.00;100172;1299;1003353;-25
2022/06/10 08:45:39;;;;;;;2.50;1.70;;;;;;;-128.00;-1.00;-1.00;100239;1299;1003081;-25
2022/06/10 08:48:12;;;;;;;1.80;1.50;;;;;;;-128.00;-1.00;-1.00;100154;1299;1003726;-29
2022/06/10 08:50:49;;;;;;;2.00;1.60;;;;;;;-128.00;-1.00;-1.00;100173;1299;1004220;-29
2022/06/10 08:53:26;;;;;;;0.80;0.50;;;;;;;-128.00;-1.00;-1.00;100159;1299;1003545;-29
2022/06/10 08:56:03;;;;;;;1.70;1.20;;;;;;;-128.00;-1.00;-1.00;100035;1299;1004588;-28
2022/06/10 08:58:37;;;;;;;2.10;1.30;;;;;;;-128.00;-1.00;-1.00;100118;1299;1003392;-29
2022/06/10 09:01:11;;;;;;;2.50;1.30;;;;;;;-128.00;-1.00;-1.00;100147;1299;1003103;-25
2022/06/10 09:03:44;;;;;;;1.50;0.90;;;;;;;-128.00;-1.00;-1.00;100116;1299;1004197;-31
2022/06/10 09:06:16;;;;;;;;;;;;;;;-128.00;-1.00;-1.00;100096;1299;1004187;-25
2022/06/10 09:08:47;;;;;;;3.10;2.30;;;;;;;-128.00;-1.00;-1.00;100200;1299;1002853;-25
2022/06/10 09:11:25;;;;;;;1.40;1.20;;;;;;;-128.00;-1.00;-1.00;100074;1299;1003960;-25
2022/06/10 09:13:59;;;;;;;1.10;0.80;;;;;;;-128.00;-1.00;-1.00;100079;1299;1004214;-25
2022/06/10 09:16:32;;;;;;;0.70;0.60;;;;;;;-128.00;-1.00;-1.00;100120;1299;1003281;-25
2022/06/10 09:19:04;;;;;;;0.50;0.40;;;;;;;-128.00;-1.00;-1.00;100196;1299;1003337;-24
2022/06/10 09:21:34;;;;;;;3.30;1.50;;;;;;;-128.00;-1.00;-1.00;100143;1299;1003602;-24
2022/06/10 09:24:12;;;;;;;3.00;1.70;;;;;;;-128.00;-1.00;-1.00;100166;1299;1003893;-24
2022/06/10 09:26:44;;;;;;;0.30;0.30;;;;;;;-128.00;-1.00;-1.00;100133;1299;1003723;-24
2022/06/10 09:29:14;;;;;;;1.30;0.50;;;;;;;-128.00;-1.00;-1.00;100054;1299;1004084;-29
2022/06/10 09:31:58;;;;;;;0.90;0.70;;;;;;;-128.00;-1.00;-1.00;100079;1299;1003699;-29
2022/06/10 09:34:49;;;;;;;2.10;1.00;;;;;;;-128.00;-1.00;-1.00;100163;1299;1004232;-24
2022/06/10 09:37:25;;;;;;;5.90;0.80;;;;;;;-128.00;-1.00;-1.00;100161;1299;1003510;-28
2022/06/10 09:42:37;;;;;;;0.60;0.60;;;;;;;-128.00;-1.00;-1.00;100140;1299;1003744;-29
2022/06/10 09:45:11;;;;;;;0.70;0.70;;;;;;;-128.00;-1.00;-1.00;100181;1299;1003665;-29
2022/06/10 09:47:45;;;;;;;0.50;0.40;;;;;;;-128.00;-1.00;-1.00;100151;1299;1003810;-29
2022/06/10 09:50:17;;;;;;;2.60;0.80;;;;;;;-128.00;-1.00;-1.00;100172;1298;1003270;-25
2022/06/10 09:52:52;;;;;;;1.00;0.60;;;;;;;-128.00;-1.00;-1.00;100174;1299;1004506;-29
2022/06/10 09:55:29;;;;;;;3.10;0.60;;;;;;;-128.00;-1.00;-1.00;100155;1296;1004124;-24
2022/06/10 09:58:05;;;;;;;0.90;0.60;;;;;;;-128.00;-1.00;-1.00;100154;1299;1003198;-28
2022/06/10 10:00:41;;;;;;;1.10;0.70;;;;;;;-128.00;-1.00;-1.00;100105;1299;1004445;-23
2022/06/10 10:03:12;;;;;;;1.10;1.00;;;;;;;-128.00;-1.00;-1.00;100123;1299;1004329;-23
2022/06/10 10:05:51;;;;;;;1.70;1.50;;;;;;;-128.00;-1.00;-1.00;100109;1299;1004119;-28
2022/06/10 10:08:33;;;;;;;1.00;0.90;;;;;;;-128.00;-1.00;-1.00;100172;1299;1003334;-28
2022/06/10 10:11:08;;;;;;;1.60;0.90;;;;;;;-128.00;-1.00;-1.00;100086;1299;1003729;-23
2022/06/10 10:13:41;;;;;;;10.80;1.10;;;;;;;-128.00;-1.00;-1.00;100161;1298;1003898;-28
2022/06/10 10:16:17;;;;;;;1.20;0.70;;;;;;;-128.00;-1.00;-1.00;100190;1299;1003504;-28
2022/06/10 10:18:46;;;;;;;2.50;0.60;;;;;;;-128.00;-1.00;-1.00;100110;1298;1003424;-23
2022/06/10 10:21:22;;;;;;;0.80;0.50;;;;;;;-128.00;-1.00;-1.00;100115;1298;1003881;-23
2022/06/10 10:23:53;;;;;;;0.70;0.60;;;;;;;-128.00;-1.00;-1.00;100178;1298;1003664;-28
2022/06/10 10:26:26;;;;;;;4.40;0.90;;;;;;;-128.00;-1.00;-1.00;100154;1299;1004656;-23
2022/06/10 10:28:58;;;;;;;0.60;0.40;;;;;;;-128.00;-1.00;-1.00;100125;1299;1004305;-24
2022/06/10 10:31:29;;;;;;;0.90;0.60;;;;;;;-128.00;-1.00;-1.00;100205;1299;1003107;-28
2022/06/10 10:33:58;;;;;;;1.00;0.50;;;;;;;-128.00;-1.00;-1.00;100150;1298;1003673;-28
2022/06/10 10:36:28;;;;;;;1.60;0.60;;;;;;;-128.00;-1.00;-1.00;100141;1298;1003411;-23
2022/06/10 10:38:57;;;;;;;0.80;0.50;;;;;;;-128.00;-1.00;-1.00;100129;1299;1003995;-28
2022/06/10 10:41:30;;;;;;;0.40;0.40;;;;;;;-128.00;-1.00;-1.00;100104;1299;1003591;-24
2022/06/10 10:44:05;;;;;;;0.60;0.50;;;;;;;-128.00;-1.00;-1.00;100191;1299;1003167;-28
2022/06/10 10:46:39;;;;;;;0.70;0.60;;;;;;;-128.00;-1.00;-1.00;100115;1298;1003195;-25
2022/06/10 10:49:17;;;;;;;0.70;0.30;;;;;;;-128.00;-1.00;-1.00;100156;1298;1003987;-24
2022/06/10 10:51:46;;;;;;;5.20;0.40;;;;;;;-128.00;-1.00;-1.00;100128;1299;1003809;-24
2022/06/10 10:54:20;;;;;;;1.70;0.60;;;;;;;-128.00;-1.00;-1.00;100078;1299;1003184;-24
2022/06/10 10:56:49;;;;;;;0.60;0.30;;;;;;;-128.00;-1.00;-1.00;99991;1299;1003566;-24
2022/06/10 10:59:22;;;;;;;0.90;0.70;;;;;;;-128.00;-1.00;-1.00;100174;1298;1003910;-28
2022/06/10 11:01:51;;;;;;;;;;;;;;;-128.00;-1.00;-1.00;100164;1299;1003891;-29
2022/06/10 11:04:25;;;;;;;1.30;0.50;;;;;;;-128.00;-1.00;-1.00;100116;1299;1003410;-28
2022/06/10 11:06:59;;;;;;;1.90;0.70;;;;;;;-128.00;-1.00;-1.00;100256;1299;1004135;-30
2022/06/10 11:09:29;;;;;;;3.50;0.60;;;;;;;-128.00;-1.00;-1.00;100205;1299;1003764;-30
2022/06/10 11:12:01;;;;;;;0.70;0.60;;;;;;;-128.00;-1.00;-1.00;100195;1299;1003754;-28
2022/06/10 11:14:35;;;;;;;1.70;0.50;;;;;;;-128.00;-1.00;-1.00;100154;1299;1003164;-24
2022/06/10 11:17:09;;;;;;;0.60;0.60;;;;;;;-128.00;-1.00;-1.00;100104;1299;1002946;-28
2022/06/10 11:19:42;;;;;;;1.60;0.70;;;;;;;-128.00;-1.00;-1.00;100114;1299;1003492;-29
2022/06/10 11:22:16;;;;;;;0.50;0.50;;;;;;;-128.00;-1.00;-1.00;100148;1299;1004212;-28
2022/06/10 11:24:49;;;;;;;1.10;0.50;;;;;;;-128.00;-1.00;-1.00;100125;1299;1002979;-28
2022/06/10 11:27:23;;;;;;;12.80;0.60;;;;;;;-128.00;-1.00;-1.00;100106;1299;1003156;-28
2022/06/10 11:29:57;;;;;;;0.70;0.60;;;;;;;-128.00;-1.00;-1.00;100148;1299;1003714;-28
2022/06/10 11:32:30;;;;;;;3.10;1.00;;;;;;;-128.00;-1.00;-1.00;100111;1299;1003592;-24
2022/06/10 11:35:02;;;;;;;1.50;0.80;;;;;;;-128.00;-1.00;-1.00;100201;1299;1003158;-24
2022/06/10 11:37:34;;;;;;;0.80;0.80;;;;;;;-128.00;-1.00;-1.00;100131;1299;1002988;-24
2022/06/10 11:40:14;;;;;;;1.20;0.70;;;;;;;-128.00;-1.00;-1.00;100144;1299;1003099;-28
2022/06/10 11:42:56;;;;;;;1.30;0.60;;;;;;;-128.00;-1.00;-1.00;100172;1299;1003836;-24
2022/06/10 11:45:28;;;;;;;1.10;0.40;;;;;;;-128.00;-1.00;-1.00;100172;1299;1004193;-28
2022/06/10 11:48:01;;;;;;;0.70;0.50;;;;;;;-128.00;-1.00;-1.00;100136;1299;1003096;-28
2022/06/10 11:50:35;;;;;;;1.30;0.70;;;;;;;-128.00;-1.00;-1.00;100162;1299;1002753;-28